createdAt,value
2022-12-23T00:01:03.825Z,94721.41
2022-12-23T00:03:33.494Z,94711.28
2022-12-23T00:06:02.271Z,94717.75
2022-12-23T00:08:30.002Z,94716.13
2022-12-23T00:10:58.326Z,94708.44
2022-12-23T00:13:43.524Z,94698.34
2022-12-23T00:16:15.012Z,94703.19
2022-12-23T00:18:43.814Z,94702.41
2022-12-23T00:21:13.756Z,94702.38
2022-12-23T00:23:46.965Z,94699.13
2022-12-23T00:26:16.705Z,94692.63
2022-12-23T00:28:45.134Z,94684.16
2022-12-23T00:31:14.874Z,94682.09
2022-12-23T00:33:45.175Z,94686.16
2022-12-23T00:36:14.950Z,94674.81
2022-12-23T00:39:00.592Z,94670.78
2022-12-23T00:41:45.913Z,94675.63
2022-12-23T00:44:14.420Z,94680.88
2022-12-23T00:46:43.399Z,94673.59
2022-12-23T00:49:31.329Z,94684.53
2022-12-23T00:51:59.983Z,94683.50
2022-12-23T00:54:27.634Z,94673.59
2022-12-23T00:56:55.390Z,94675.19
2022-12-23T00:59:23.389Z,94682.13
2022-12-23T01:02:10.453Z,94677.88
2022-12-23T01:04:56.089Z,94675.25
2022-12-23T01:07:25.108Z,94662.28
2022-12-23T01:09:52.730Z,94659.41
2022-12-23T01:12:20.821Z,94662.25
2022-12-23T01:14:50.989Z,94662.03
2022-12-23T01:17:21.310Z,94671.78
2022-12-23T01:19:49.565Z,94670.75
2022-12-23T01:22:17.160Z,94678.47
2022-12-23T01:24:45.104Z,94666.69
2022-12-23T01:27:12.677Z,94664.28
2022-12-23T01:29:40.789Z,94681.25
2022-12-23T01:32:08.453Z,94672.00
2022-12-23T01:34:37.875Z,94681.06
2022-12-23T01:37:05.915Z,94668.56
2022-12-23T01:39:33.836Z,94678.06
2022-12-23T01:42:19.672Z,94679.06
2022-12-23T01:44:55.096Z,94678.06
2022-12-23T01:47:33.092Z,94688.59
2022-12-23T01:50:07.196Z,94683.75
2022-12-23T01:52:39.667Z,94695.88
2022-12-23T01:55:08.465Z,94687.78
2022-12-23T01:57:38.511Z,94691.41
2022-12-23T02:00:28.534Z,94695.88
2022-12-23T02:03:14.235Z,94687.31
2022-12-23T02:05:45.077Z,94696.28
2022-12-23T02:08:33.268Z,94699.06
2022-12-23T02:11:20.066Z,94691.41
2022-12-23T02:14:17.621Z,94706.00
2022-12-23T02:16:52.082Z,94706.22
2022-12-23T02:19:37.195Z,94699.16
2022-12-23T02:22:24.956Z,94716.34
2022-12-23T02:25:13.331Z,94709.84
2022-12-23T02:27:55.759Z,94708.66
2022-12-23T02:30:29.335Z,94718.38
2022-12-23T02:33:15.856Z,94725.25
2022-12-23T02:35:49.642Z,94720.00
2022-12-23T02:38:24.574Z,94721.41
2022-12-23T02:41:00.765Z,94705.66
2022-12-23T02:43:36.453Z,94710.50
2022-12-23T02:46:13.140Z,94712.94
2022-12-23T02:48:47.281Z,94719.81
2022-12-23T02:51:18.257Z,94714.94
2022-12-23T02:53:51.869Z,94705.63
2022-12-23T02:56:22.451Z,94714.97
2022-12-23T02:58:55.691Z,94723.50
2022-12-23T03:01:27.666Z,94710.88
2022-12-23T03:03:55.492Z,94708.09
2022-12-23T03:06:27.134Z,94727.94
2022-12-23T03:08:58.496Z,94719.03
2022-12-23T03:11:40.016Z,94712.13
2022-12-23T03:14:30.445Z,94712.75
2022-12-23T03:17:11.704Z,94715.97
2022-12-23T03:19:47.988Z,94709.72
2022-12-23T03:22:24.939Z,94719.41
2022-12-23T03:25:02.365Z,94699.59
2022-12-23T03:27:34.912Z,94718.22
2022-12-23T03:30:07.676Z,94718.44
2022-12-23T03:32:42.092Z,94728.75
2022-12-23T03:35:13.673Z,94716.19
2022-12-23T03:37:45.793Z,94738.91
2022-12-23T03:40:20.110Z,94725.91
2022-12-23T03:42:51.277Z,94730.38
2022-12-23T03:45:41.398Z,94718.22
2022-12-23T03:48:14.629Z,94743.97
2022-12-23T03:50:45.887Z,94744.38
2022-12-23T03:53:18.430Z,94745.78
2022-12-23T03:55:52.853Z,94744.19
2022-12-23T03:58:31.817Z,94738.50
2022-12-23T04:01:05.727Z,94742.16
2022-12-23T04:03:42.769Z,94738.69
2022-12-23T04:06:16.015Z,94744.59
2022-12-23T04:08:45.552Z,94731.19
2022-12-23T04:11:14.440Z,94749.06
2022-12-23T04:13:42.182Z,94750.28
2022-12-23T04:16:11.267Z,94745.81
2022-12-23T04:18:40.394Z,94749.47
2022-12-23T04:21:08.323Z,94745.59
2022-12-23T04:23:35.968Z,94748.44
2022-12-23T04:26:03.590Z,94742.56
2022-12-23T04:28:31.195Z,94760.59
2022-12-23T04:30:59.552Z,94767.28
2022-12-23T04:33:27.207Z,94773.78
2022-12-23T04:35:56.364Z,94771.31
2022-12-23T04:38:24.593Z,94769.94
2022-12-23T04:40:52.203Z,94768.69
2022-12-23T04:43:19.842Z,94780.47
2022-12-23T04:45:51.736Z,94771.38
2022-12-23T04:48:19.799Z,94765.06
2022-12-23T04:50:49.761Z,94764.47
2022-12-23T04:53:18.720Z,94775.38
2022-12-23T04:55:51.402Z,94776.22
2022-12-23T04:58:21.920Z,94778.47
2022-12-23T05:00:49.715Z,94782.09
2022-12-23T05:03:17.477Z,94776.81
2022-12-23T05:05:45.878Z,94783.28
2022-12-23T05:08:14.257Z,94783.91
2022-12-23T05:10:43.193Z,94779.06
2022-12-23T05:13:11.424Z,94771.97
2022-12-23T05:15:39.042Z,94790.44
2022-12-23T05:18:06.816Z,94803.41
2022-12-23T05:20:34.417Z,94791.19
2022-12-23T05:23:02.079Z,94801.22
2022-12-23T05:25:29.678Z,94799.75
2022-12-23T05:27:59.386Z,94803.38
2022-12-23T05:30:27.025Z,94807.06
2022-12-23T05:32:56.000Z,94784.72
2022-12-23T05:35:24.374Z,94797.72
2022-12-23T05:37:52.463Z,94798.09
2022-12-23T05:40:23.761Z,94806.22
2022-12-23T05:42:58.847Z,94805.22
2022-12-23T05:45:26.505Z,94818.81
2022-12-23T05:47:54.157Z,94829.38
2022-12-23T05:50:21.755Z,94827.34
2022-12-23T05:52:50.179Z,94827.72
2022-12-23T05:55:17.972Z,94823.25
2022-12-23T05:57:46.732Z,94826.75
2022-12-23T06:00:17.450Z,94824.69
2022-12-23T06:02:51.776Z,94833.22
2022-12-23T06:05:21.322Z,94835.81
2022-12-23T06:07:50.122Z,94841.56
2022-12-23T06:10:17.872Z,94838.28
2022-12-23T06:12:45.915Z,94837.09
2022-12-23T06:15:13.970Z,94842.53
2022-12-23T06:17:43.448Z,94849.44
2022-12-23T06:20:19.712Z,94855.56
2022-12-23T06:22:48.942Z,94858.16
2022-12-23T06:25:16.647Z,94861.78
2022-12-23T06:27:45.067Z,94853.84
2022-12-23T06:30:12.977Z,94849.66
2022-12-23T06:32:40.943Z,94844.97
2022-12-23T06:35:10.836Z,94860.38
2022-12-23T06:37:38.892Z,94849.59
2022-12-23T06:40:07.860Z,94865.91
2022-12-23T06:42:35.841Z,94864.28
2022-12-23T06:45:03.464Z,94891.88
2022-12-23T06:47:31.479Z,94882.97
2022-12-23T06:49:59.305Z,94881.13
2022-12-23T06:52:28.856Z,94882.53
2022-12-23T06:54:56.451Z,94888.44
2022-12-23T06:57:24.098Z,94878.66
2022-12-23T06:59:51.671Z,94892.47
2022-12-23T07:02:19.775Z,94894.88
2022-12-23T07:04:48.226Z,94891.84
2022-12-23T07:07:15.920Z,94899.13
2022-12-23T07:09:45.587Z,94895.91
2022-12-23T07:12:13.163Z,94900.59
2022-12-23T07:14:41.135Z,94914.38
2022-12-23T07:17:08.834Z,94912.56
2022-12-23T07:19:36.905Z,94921.50
2022-12-23T07:22:04.808Z,94923.94
2022-12-23T07:24:32.793Z,94919.88
2022-12-23T07:27:01.712Z,94914.81
2022-12-23T07:29:29.603Z,94909.31
2022-12-23T07:31:57.235Z,94914.81
2022-12-23T07:34:25.077Z,94922.31
2022-12-23T07:36:52.730Z,94920.88
2022-12-23T07:39:20.653Z,94918.66
2022-12-23T07:41:48.375Z,94923.50
2022-12-23T07:44:17.719Z,94930.41
2022-12-23T07:46:45.635Z,94922.31
2022-12-23T07:49:13.537Z,94933.72
2022-12-23T07:51:41.125Z,94927.97
2022-12-23T07:54:08.731Z,94932.84
2022-12-23T07:56:36.437Z,94932.28
2022-12-23T07:59:04.158Z,94933.69
2022-12-23T08:01:33.223Z,94931.34
2022-12-23T08:04:01.776Z,94930.75
2022-12-23T08:06:29.428Z,94934.66
2022-12-23T08:08:57.048Z,94929.16
2022-12-23T08:11:24.660Z,94927.53
2022-12-23T08:13:52.974Z,94931.59
2022-12-23T08:16:20.635Z,94941.34
2022-12-23T08:18:50.165Z,94943.16
2022-12-23T08:21:19.471Z,94938.50
2022-12-23T08:23:48.572Z,94932.00
2022-12-23T08:26:18.189Z,94933.25
2022-12-23T08:28:46.509Z,94937.09
2022-12-23T08:31:16.412Z,94937.25
2022-12-23T08:33:46.782Z,94943.97
2022-12-23T08:36:23.039Z,94946.59
2022-12-23T08:38:52.848Z,94940.09
2022-12-23T08:41:22.957Z,94949.63
2022-12-23T08:43:51.351Z,94961.63
2022-12-23T08:46:19.405Z,94964.06
2022-12-23T08:48:49.814Z,94961.22
2022-12-23T08:51:21.454Z,94963.69
2022-12-23T08:53:59.657Z,94977.47
2022-12-23T08:56:30.519Z,94977.28
2022-12-23T08:58:58.512Z,94985.41
2022-12-23T09:01:28.469Z,94978.72
2022-12-23T09:03:56.567Z,94983.75
2022-12-23T09:06:30.047Z,94977.47
2022-12-23T09:08:59.322Z,94983.97
2022-12-23T09:11:29.026Z,94988.44
2022-12-23T09:13:57.871Z,94967.72
2022-12-23T09:16:25.760Z,94964.06
2022-12-23T09:18:53.784Z,94957.94
2022-12-23T09:21:23.488Z,94961.63
2022-12-23T09:23:53.003Z,94962.06
2022-12-23T09:26:23.628Z,94965.88
2022-12-23T09:28:51.631Z,94966.69
2022-12-23T09:31:20.120Z,94962.00
2022-12-23T09:33:49.217Z,94968.94
2022-12-23T09:36:17.234Z,94973.34
2022-12-23T09:38:44.956Z,94976.00
2022-12-23T09:41:27.600Z,94978.22
2022-12-23T09:44:09.072Z,94972.94
2022-12-23T09:46:48.634Z,94975.00
2022-12-23T09:49:18.461Z,94970.97
2022-12-23T09:51:48.696Z,94963.25
2022-12-23T09:54:20.374Z,94961.56
2022-12-23T09:57:01.711Z,94957.97
2022-12-23T09:59:49.930Z,94963.69
2022-12-23T10:02:26.687Z,94963.25
2022-12-23T10:05:05.950Z,94953.09
2022-12-23T10:07:38.348Z,94950.25
2022-12-23T10:10:15.538Z,94952.28
2022-12-23T10:12:48.551Z,94948.63
2022-12-23T10:15:23.627Z,94953.69
2022-12-23T10:17:55.778Z,94950.00
2022-12-23T10:20:33.437Z,94943.69
2022-12-23T10:23:01.321Z,94936.00
2022-12-23T10:25:36.744Z,94938.03
2022-12-23T10:28:05.919Z,94935.19
2022-12-23T10:31:05.942Z,94939.22
2022-12-23T10:33:37.197Z,94936.78
2022-12-23T10:36:10.074Z,94928.78
2022-12-23T10:38:48.927Z,94935.44
2022-12-23T10:41:26.253Z,94925.75
2022-12-23T10:44:15.426Z,94926.13
2022-12-23T10:46:51.753Z,94945.59
2022-12-23T10:49:31.166Z,94909.00
2022-12-23T10:52:01.229Z,94908.56
2022-12-23T10:54:33.313Z,94908.88
2022-12-23T10:57:02.042Z,94905.53
2022-12-23T10:59:34.980Z,94909.34
2022-12-23T11:02:07.296Z,94905.63
2022-12-23T11:04:37.900Z,94899.59
2022-12-23T11:07:42.758Z,94897.31
2022-12-23T11:10:02.072Z,94894.94
2022-12-23T11:12:42.505Z,94877.34
2022-12-23T11:15:29.424Z,94883.66
2022-12-23T11:18:06.464Z,94874.56
2022-12-23T11:20:35.512Z,94902.00
2022-12-23T11:23:05.575Z,94887.47
2022-12-23T11:25:36.857Z,94891.84
2022-12-23T11:28:08.765Z,94894.13
2022-12-23T11:30:55.163Z,94895.00
2022-12-23T11:33:27.066Z,94892.69
2022-12-23T11:36:04.728Z,94890.22
2022-12-23T11:38:32.897Z,94882.50
2022-12-23T11:41:01.483Z,94886.47
2022-12-23T11:43:29.774Z,94879.66
2022-12-23T11:46:18.147Z,94878.81
2022-12-23T11:48:52.850Z,94872.72
2022-12-23T11:51:26.813Z,94877.25
2022-12-23T11:54:01.096Z,94871.84
2022-12-23T11:56:30.623Z,94868.63
2022-12-23T11:59:04.647Z,94861.91
2022-12-23T12:01:33.798Z,94870.09
2022-12-23T12:04:07.328Z,94860.09
2022-12-23T12:06:35.703Z,94854.22
2022-12-23T12:09:06.846Z,94852.53
2022-12-23T12:11:40.043Z,94837.22
2022-12-23T12:14:09.576Z,94842.34
2022-12-23T12:16:51.671Z,94840.84
2022-12-23T12:19:25.272Z,94833.03
2022-12-23T12:21:58.033Z,94825.78
2022-12-23T12:24:29.913Z,94838.75
2022-12-23T12:27:03.203Z,94833.16
2022-12-23T12:29:37.003Z,94830.75
2022-12-23T12:32:15.477Z,94820.63
2022-12-23T12:34:50.591Z,94818.56
2022-12-23T12:37:26.905Z,94807.69
2022-12-23T12:39:57.686Z,94811.16
2022-12-23T12:42:30.684Z,94812.16
2022-12-23T12:45:11.804Z,94801.84
2022-12-23T12:47:56.793Z,94799.84
2022-12-23T12:50:30.129Z,94796.91
2022-12-23T12:53:01.646Z,94794.19
2022-12-23T12:55:32.731Z,94801.63
2022-12-23T12:58:02.473Z,94795.94
2022-12-23T13:00:38.552Z,94796.97
2022-12-23T13:03:24.037Z,94802.00
2022-12-23T13:06:05.825Z,94798.44
2022-12-23T13:08:55.879Z,94795.28
2022-12-23T13:11:30.387Z,94803.19
2022-12-23T13:14:06.577Z,94784.09
2022-12-23T13:16:44.293Z,94788.63
2022-12-23T13:19:27.576Z,94784.16
2022-12-23T13:22:04.513Z,94786.72
2022-12-23T13:24:39.225Z,94791.84
2022-12-23T13:27:12.063Z,94777.84
2022-12-23T13:29:58.276Z,94780.44
2022-12-23T13:32:53.470Z,94782.13
2022-12-23T13:35:35.514Z,94771.72
2022-12-23T13:38:16.862Z,94770.91
2022-12-23T13:40:54.006Z,94774.72
2022-12-23T13:43:24.740Z,94776.41
2022-12-23T13:45:55.265Z,94757.03
2022-12-23T13:48:37.139Z,94768.34
2022-12-23T13:51:13.973Z,94767.78
2022-12-23T13:53:58.036Z,94762.66
2022-12-23T13:56:37.147Z,94752.75
2022-12-23T13:59:10.669Z,94757.13
2022-12-23T14:01:46.629Z,94755.28
2022-12-23T14:04:34.811Z,94747.28
2022-12-23T14:07:06.570Z,94754.78
2022-12-23T14:09:36.989Z,94752.78
2022-12-23T14:12:22.031Z,94742.72
2022-12-23T14:15:20.629Z,94748.88
2022-12-23T14:18:02.749Z,94744.34
2022-12-23T14:20:44.564Z,94734.34
2022-12-23T14:23:28.887Z,94727.97
2022-12-23T14:26:10.631Z,94733.84
2022-12-23T14:28:56.462Z,94730.13
2022-12-23T14:31:31.040Z,94735.69
2022-12-23T14:34:05.338Z,94723.06
2022-12-23T14:36:33.100Z,94717.13
2022-12-23T14:39:32.876Z,94725.25
2022-12-23T14:42:06.486Z,94717.78
2022-12-23T14:44:49.388Z,94713.25
2022-12-23T14:47:32.934Z,94720.03
2022-12-23T14:50:34.542Z,94709.94
2022-12-23T14:53:03.097Z,94707.41
2022-12-23T14:56:09.450Z,94711.84
2022-12-23T14:59:12.273Z,94706.94
2022-12-23T15:01:42.712Z,94703.06
2022-12-23T15:04:19.120Z,94704.41
2022-12-23T15:06:49.355Z,94703.47
2022-12-23T15:09:25.694Z,94709.84
2022-12-23T15:11:54.863Z,94695.44
2022-12-23T15:14:32.825Z,94697.28
2022-12-23T15:17:00.930Z,94693.06
2022-12-23T15:19:29.127Z,94696.00
2022-12-23T15:22:17.856Z,94700.84
2022-12-23T15:24:49.121Z,94699.50
2022-12-23T15:27:27.322Z,94705.81
2022-12-23T15:29:58.569Z,94697.84
2022-12-23T15:32:28.545Z,94714.50
2022-12-23T15:35:02.409Z,94704.66
2022-12-23T15:37:32.509Z,94695.72
2022-12-23T15:40:11.518Z,94714.19
2022-12-23T15:42:48.125Z,94696.56
2022-12-23T15:45:31.969Z,94716.13
2022-12-23T15:47:59.779Z,94716.59
2022-12-23T15:50:28.918Z,94737.19
2022-12-23T15:53:06.392Z,94718.53
2022-12-23T15:55:36.255Z,94710.88
2022-12-23T15:58:05.009Z,94728.81
2022-12-23T16:00:40.364Z,94712.94
2022-12-23T16:03:22.893Z,94725.72
2022-12-23T16:05:50.634Z,94730.41
2022-12-23T16:08:30.114Z,94724.91
2022-12-23T16:11:06.249Z,94730.19
2022-12-23T16:13:34.033Z,94730.47
2022-12-23T16:16:31.316Z,94721.47
2022-12-23T16:18:59.055Z,94724.63
2022-12-23T16:21:31.364Z,94730.41
2022-12-23T16:24:00.855Z,94729.56
2022-12-23T16:26:28.900Z,94741.44
2022-12-23T16:29:00.454Z,94728.00
2022-12-23T16:31:29.589Z,94732.53
2022-12-23T16:33:59.273Z,94742.56
2022-12-23T16:36:35.220Z,94739.81
2022-12-23T16:39:20.077Z,94733.25
2022-12-23T16:41:48.513Z,94747.69
2022-12-23T16:44:16.489Z,94735.19
2022-12-23T16:46:48.709Z,94728.31
2022-12-23T16:49:17.703Z,94733.13
2022-12-23T16:51:45.955Z,94736.41
2022-12-23T16:54:16.007Z,94728.38
2022-12-23T16:56:44.406Z,94734.84
2022-12-23T16:59:11.981Z,94722.22
2022-12-23T17:01:42.930Z,94741.44
2022-12-23T17:04:12.453Z,94741.19
2022-12-23T17:06:41.485Z,94737.91
2022-12-23T17:09:09.641Z,94743.66
2022-12-23T17:11:41.033Z,94746.03
2022-12-23T17:14:16.103Z,94744.66
2022-12-23T17:16:44.705Z,94750.44
2022-12-23T17:19:14.123Z,94770.56
2022-12-23T17:21:44.021Z,94743.06
2022-12-23T17:24:17.155Z,94756.97
2022-12-23T17:26:45.240Z,94764.31
2022-12-23T17:29:13.537Z,94767.19
2022-12-23T17:31:43.289Z,94769.03
2022-12-23T17:34:17.123Z,94757.31
2022-12-23T17:36:49.926Z,94750.09
2022-12-23T17:39:18.188Z,94750.66
2022-12-23T17:41:45.879Z,94756.00
2022-12-23T17:44:15.648Z,94761.22
2022-12-23T17:46:44.026Z,94741.63
2022-12-23T17:49:12.425Z,94750.31
2022-12-23T17:51:43.310Z,94740.72
2022-12-23T17:54:21.287Z,94736.22
2022-12-23T17:56:49.254Z,94738.53
2022-12-23T17:59:16.825Z,94745.84
2022-12-23T18:01:45.384Z,94726.16
2022-12-23T18:04:13.073Z,94733.34
2022-12-23T18:06:41.993Z,94737.31
2022-12-23T18:09:09.565Z,94745.69
2022-12-23T18:11:41.948Z,94730.88
2022-12-23T18:14:16.352Z,94746.47
2022-12-23T18:16:44.473Z,94728.38
2022-12-23T18:19:17.450Z,94729.97
2022-12-23T18:21:47.761Z,94721.47
2022-12-23T18:24:15.788Z,94746.59
2022-12-23T18:26:44.189Z,94745.25
2022-12-23T18:29:11.790Z,94724.75
2022-12-23T18:31:51.366Z,94725.13
2022-12-23T18:34:20.488Z,94728.81
2022-12-23T18:36:52.215Z,94717.38
2022-12-23T18:39:19.990Z,94711.59
2022-12-23T18:41:47.844Z,94709.13
2022-12-23T18:44:20.435Z,94715.31
2022-12-23T18:46:49.104Z,94713.25
2022-12-23T18:49:17.259Z,94718.09
2022-12-23T18:51:45.006Z,94725.44
2022-12-23T18:54:16.077Z,94721.38
2022-12-23T18:56:44.199Z,94731.50
2022-12-23T18:59:16.581Z,94729.44
2022-12-23T19:01:44.312Z,94720.34
2022-12-23T19:04:11.936Z,94715.22
2022-12-23T19:06:39.851Z,94712.13
2022-12-23T19:09:08.309Z,94710.19
2022-12-23T19:11:37.298Z,94719.63
2022-12-23T19:14:05.297Z,94709.16
2022-12-23T19:16:33.171Z,94725.97
2022-12-23T19:19:01.206Z,94735.50
2022-12-23T19:21:28.958Z,94731.25
2022-12-23T19:23:58.352Z,94734.63
2022-12-23T19:26:26.451Z,94735.19
2022-12-23T19:28:56.004Z,94734.72
2022-12-23T19:31:24.044Z,94729.75
2022-12-23T19:33:52.314Z,94738.41
2022-12-23T19:36:22.805Z,94754.28
2022-12-23T19:38:52.007Z,94762.38
2022-12-23T19:41:20.144Z,94760.44
2022-12-23T19:43:48.731Z,94764.88
2022-12-23T19:46:18.697Z,94764.00
2022-12-23T19:48:51.472Z,94774.72
2022-12-23T19:51:19.258Z,94773.38
2022-12-23T19:53:53.014Z,94764.50
2022-12-23T19:56:21.992Z,94756.00
2022-12-23T19:58:50.940Z,94772.63
2022-12-23T20:01:22.357Z,94779.00
2022-12-23T20:03:52.223Z,94779.81
2022-12-23T20:06:22.752Z,94789.69
2022-12-23T20:08:54.906Z,94812.31
2022-12-23T20:11:26.821Z,94805.84
2022-12-23T20:13:55.402Z,94802.19
2022-12-23T20:16:24.440Z,94789.66
2022-12-23T20:18:53.003Z,94797.78
2022-12-23T20:21:20.946Z,94796.94
2022-12-23T20:23:49.055Z,94805.78
2022-12-23T20:26:18.619Z,94796.50
2022-12-23T20:28:46.893Z,94785.59
2022-12-23T20:31:18.826Z,94789.69
2022-12-23T20:33:50.628Z,94800.84
2022-12-23T20:36:21.588Z,94814.31
2022-12-23T20:38:50.125Z,94816.44
2022-12-23T20:41:19.260Z,94832.69
2022-12-23T20:44:02.663Z,94838.41
2022-12-23T20:46:35.735Z,94841.28
2022-12-23T20:49:05.021Z,94847.63
2022-12-23T20:51:32.640Z,94837.38
2022-12-23T20:54:01.155Z,94838.66
2022-12-23T20:56:30.346Z,94839.56
2022-12-23T20:59:03.068Z,94850.75
2022-12-23T21:01:33.565Z,94842.78
2022-12-23T21:04:03.857Z,94854.88
2022-12-23T21:06:33.667Z,94841.47
2022-12-23T21:09:05.217Z,94835.25
2022-12-23T21:11:34.678Z,94838.81
2022-12-23T21:14:06.200Z,94850.16
2022-12-23T21:16:35.100Z,94849.78
2022-12-23T21:19:04.053Z,94862.41
2022-12-23T21:21:33.348Z,94883.34
2022-12-23T21:24:04.251Z,94897.72
2022-12-23T21:26:34.590Z,94904.84
2022-12-23T21:29:03.778Z,94904.19
2022-12-23T21:31:33.924Z,94901.09
2022-12-23T21:34:01.881Z,94914.72
2022-12-23T21:36:32.201Z,94914.84
2022-12-23T21:39:02.149Z,94919.53
2022-12-23T21:41:32.295Z,94928.53
2022-12-23T21:44:01.054Z,94921.97
2022-12-23T21:46:30.217Z,94929.81
2022-12-23T21:48:58.976Z,94942.09
2022-12-23T21:51:36.713Z,94923.50
2022-12-23T21:54:09.944Z,94930.16
2022-12-23T21:56:38.406Z,94930.00
2022-12-23T21:59:08.308Z,94922.88
2022-12-23T22:01:36.213Z,94926.66
2022-12-23T22:04:03.970Z,94946.19
2022-12-23T22:06:33.631Z,94930.31
2022-12-23T22:09:01.204Z,94945.00
2022-12-23T22:11:33.459Z,94934.81
2022-12-23T22:14:02.545Z,94934.81
2022-12-23T22:16:32.389Z,94938.97
2022-12-23T22:19:01.351Z,94960.31
2022-12-23T22:21:32.106Z,94957.06
2022-12-23T22:24:00.827Z,94941.81
2022-12-23T22:26:32.466Z,94948.50
2022-12-23T22:29:01.628Z,94955.59
2022-12-23T22:31:35.225Z,94934.19
2022-12-23T22:34:03.246Z,94956.97
2022-12-23T22:36:31.882Z,94942.13
2022-12-23T22:39:01.459Z,94955.53
2022-12-23T22:41:31.825Z,94949.25
2022-12-23T22:44:00.336Z,94969.00
2022-12-23T22:46:29.129Z,94972.19
2022-12-23T22:48:58.609Z,94956.34
2022-12-23T22:51:29.108Z,94951.03
2022-12-23T22:53:57.539Z,94964.34
2022-12-23T22:56:26.555Z,94965.72
2022-12-23T22:58:55.787Z,94966.75
2022-12-23T23:01:26.501Z,94962.28
2022-12-23T23:03:57.209Z,94976.72
2022-12-23T23:06:26.785Z,94972.69
2022-12-23T23:08:54.536Z,94986.88
2022-12-23T23:11:23.406Z,94976.66
2022-12-23T23:13:51.009Z,94974.47
2022-12-23T23:16:20.458Z,95014.09
2022-12-23T23:18:48.140Z,95010.03
2022-12-23T23:21:16.450Z,95015.75
2022-12-23T23:23:44.177Z,95018.56
2022-12-23T23:26:15.028Z,94998.25
2022-12-23T23:28:43.688Z,94997.41
2022-12-23T23:34:01.064Z,95001.09
2022-12-23T23:36:29.216Z,94990.75
2022-12-23T23:38:56.870Z,95001.09
2022-12-23T23:41:24.528Z,94997.81
2022-12-23T23:43:52.162Z,94995.41
2022-12-23T23:46:20.156Z,94997.47
2022-12-23T23:48:49.104Z,95001.31
2022-12-23T23:51:18.172Z,95004.38
2022-12-23T23:53:46.675Z,95018.41
2022-12-23T23:56:14.330Z,95013.75
2022-12-23T23:58:42.367Z,95012.50
